Noatak Airport
PAWN : now visible

Aeroporto :











RITROVATECI SU...

 
LOGIN :

Iscrizione | Disclaimer

   EN    FR    IT 

 









Sommario :    VFR   VFR Marginale   IFR   IFR Intensivo   IFR Molto Intensivo
Visibilità : 
Base nubi : 
>= 8 km
>= 3000ft
5 / 8 km
1000 / 3000 ft
1500m / 5 km
500 / 1000 ft
800 / 1500m
200 / 500 ft
< 800m
< 200 ft
Simboli :   Temporali  Nebbia  Neve Forte  Precipitazioni Forti  Vento > 20 kt






- Altitudine del aeroporto : 88 ft
- Codice IATA : WTK


PAWN - Noatak

ULTIMO METAR :
  • 072345Z AUTO 15006KT 10SM SCT019 M11/M18 A3007 RMK AO2 FZRANO

METARs OBSOLETI :
  • 072256Z AUTO 27003KT 10SM OVC019 M12/M19 A3008 RMK AO2 SLP201 T11171189 FZRANO
  • 072219Z AUTO 00000KT 10SM BKN019 M14/M19 A3009 RMK AO2 FZRANO
  • 072203Z AUTO 00000KT 10SM FEW014 SCT019 M15/M20 A3009 RMK AO2 FZRANO
  • 072156Z AUTO 33003KT 10SM FEW014 BKN019 M15/M20 A3009 RMK AO2 SLP204 T11501200 FZRANO
  • 072146Z AUTO 34004KT 10SM BKN017 M16/M20 A3009 RMK AO2 FZRANO
  • 072116Z AUTO 31003KT 10SM SCT017 M17/M21 A3009 RMK AO2 FZRANO
  • 072056Z AUTO 33003KT 4SM HZ BKN015 M18/M22 A3008 RMK AO2 SLP202 T11781217 52006 FZRANO

TAF N/A



MetMap, La meteo Aeronautica in un colpo d'occhio ! - Copyright ORBIFLY Dicembre 2007 - Disclaimer

ORBIFLY MET'MAP TEAM :

Programmazione e sviluppo : Alexandra Zaïnal
Concezione : Baudouin d'Aumeries
Aiuto per la programmazione : Marc-Olivier Méhu
Supporto tecnico e logistico : Manuel Goepfert
Aiuto per la traduzione : Arnaldo La Scala

Contatto : metmap@orbifly.com




FONTI E CREDITI :

   NOAA       Earth
Advisory